Stations météo

réclame
Mon MeteoGroup
Uccle, Belgique (6447): Température de l'air & dewpoint: 18.11.2017 17:00:00 - 24.11.2017 17:00:00 (CET)Uccle, Belgique (6447): Vitesse du vent & gusts: 18.11.2017 17:00:00 - 24.11.2017 17:00:00 (CET)Uccle, Belgique (6447): Direction du vent: 18.11.2017 17:00:00 - 24.11.2017 17:00:00 (CET)Uccle, Belgique (6447): reduced air pressure: 18.11.2017 17:00:00 - 24.11.2017 17:00:00 (CET)Uccle, Belgique (6447): Ensoleillement: 18.11.2017 17:00:00 - 24.11.2017 17:00:00 (CET)Uccle, Belgique (6447): Quantités de précipitations: 18.11.2017 17:00:00 - 24.11.2017 17:00:00 (CET)
Date & Time tt [°C] td [°C] ff [km/h] ff [knt] fx [km/h] fx [knt] dd ppp [hPa] sd [min] rr [mm]
24.11.2017 17:00:00 - - - - - - - - - -
24.11.2017 16:00:00 9,5 4,8 6 3 16 8 SW 1011,4 59 0,0
24.11.2017 15:00:00 10,0 6,2 8 5 18 10 WSW 1011,3 60 0,0
24.11.2017 14:00:00 9,3 6,3 9 5 17 9 WSW 1011,5 47 0,0
24.11.2017 13:00:00 9,4 6,7 7 4 19 10 WSW 1011,3 55 0,0
24.11.2017 12:00:00 8,4 7,5 13 7 22 12 WSW 1011,2 35 0,0
24.11.2017 11:00:00 7,3 7,0 9 5 15 8 WSW 1010,6 13 0,0
24.11.2017 10:00:00 7,0 6,7 6 3 17 9 SW 1009,8 0 0,0
24.11.2017 09:00:00 7,0 6,7 8 4 13 7 WSW 1009,2 0 0,0
24.11.2017 08:00:00 6,9 6,6 7 4 16 9 W 1007,9 0 0,0
24.11.2017 07:00:00 7,0 6,7 14 8 21 12 WNW 1006,9 0 0,7
24.11.2017 06:00:00 7,0 6,6 5 3 26 14 E 1005,5 0 1,4
24.11.2017 05:00:00 7,7 7,3 12 7 20 11 WNW 1006,7 0 4,9
24.11.2017 04:00:00 7,7 7,2 8 4 13 7 W 1006,8 0 2,6
24.11.2017 03:00:00 8,5 7,6 4 2 16 8 SSE 1007,4 0 1,2
24.11.2017 02:00:00 9,1 7,1 10 6 19 11 S 1007,9 0 0,6
24.11.2017 01:00:00 9,2 7,2 11 6 21 11 S 1008,4 0 0,0
24.11.2017 00:00:00 9,9 6,9 10 6 27 15 S 1008,6 0 0,0
23.11.2017 23:00:00 10,7 6,8 15 8 33 18 SSW 1009,0 0 0,0
23.11.2017 22:00:00 10,5 6,7 16 9 33 18 SW 1009,4 0 0,0
23.11.2017 21:00:00 10,2 6,3 19 10 32 17 SSW 1009,0 0 0,0
23.11.2017 20:00:00 10,0 6,1 18 10 31 17 SSW 1008,5 0 0,0
23.11.2017 19:00:00 9,7 5,6 14 8 27 14 SSW 1007,9 0 0,0
23.11.2017 18:00:00 10,9 6,8 10 5 33 18 SW 1007,3 0 0,0
23.11.2017 17:00:00 11,4 7,5 20 11 47 26 WSW 1006,3 0 0,0
23.11.2017 16:00:00 11,9 9,9 22 12 44 24 WSW 1005,3 0 0,0
23.11.2017 15:00:00 11,7 10,8 14 8 56 30 WSW 1004,0 0 3,0
23.11.2017 14:00:00 14,7 9,5 37 20 74 40 SSW 1002,3 0 0,0
23.11.2017 13:00:00 14,5 9,1 29 16 59 32 SSW 1001,8 2 0,0
23.11.2017 12:00:00 14,2 9,0 29 15 61 33 SSW 1001,3 2 0,0
23.11.2017 11:00:00 14,3 8,0 29 16 64 35 SSW 1000,8 0 0,0
23.11.2017 10:00:00 13,4 7,2 32 17 72 39 SSW 999,4 0 0,0
23.11.2017 09:00:00 13,6 6,1 36 20 74 40 SSW 998,2 0 0,0
23.11.2017 08:00:00 13,6 5,5 36 19 74 40 S 997,0 0 0,0
23.11.2017 07:00:00 12,6 4,7 36 19 65 35 S 996,6 0 0,0
23.11.2017 06:00:00 12,7 4,1 31 17 61 33 S 997,1 0 0,0
23.11.2017 05:00:00 12,7 3,7 31 17 59 32 S 997,5 0 0,0
23.11.2017 04:00:00 12,8 3,2 30 16 59 32 S 998,3 0 0,0
23.11.2017 03:00:00 12,9 2,9 29 16 58 31 S 998,9 0 0,0
23.11.2017 02:00:00 12,2 3,0 29 15 49 26 S 998,7 0 0,0
23.11.2017 01:00:00 12,8 2,7 29 16 53 29 S 999,7 0 0,0
23.11.2017 00:00:00 12,9 2,6 27 15 58 31 S 1000,6 0 0,0
22.11.2017 23:00:00 12,6 2,8 28 15 51 28 S 1000,8 0 0,0
22.11.2017 22:00:00 11,4 3,2 25 14 48 26 S 1001,2 0 0,0
22.11.2017 21:00:00 11,0 3,4 29 16 44 24 SSE 1001,5 0 0,0
22.11.2017 20:00:00 10,7 4,3 26 14 51 27 S 1002,6 0 0,0
22.11.2017 19:00:00 10,6 4,7 25 14 52 28 S 1003,1 0 0,0
22.11.2017 18:00:00 10,5 4,8 29 16 44 24 SSE 1003,3 0 0,0
22.11.2017 17:00:00 10,6 5,1 20 11 37 20 SSE 1004,0 18 0,0
22.11.2017 16:00:00 12,1 5,5 18 10 31 17 S 1004,8 60 0,0
22.11.2017 15:00:00 13,3 6,2 19 11 36 20 S 1005,3 60 0,0
22.11.2017 14:00:00 13,1 6,6 19 10 38 21 S 1006,0 60 0,0
22.11.2017 13:00:00 12,8 7,0 22 12 - - S 1006,7 60 0,0
22.11.2017 12:00:00 12,2 7,5 20 11 42 23 S 1007,5 60 0,0
22.11.2017 11:00:00 10,5 7,5 20 11 48 26 S 1007,9 59 0,0
22.11.2017 10:00:00 9,4 7,1 23 13 46 25 S 1008,2 2 0,0
22.11.2017 09:00:00 9,9 7,5 22 12 46 25 SSW 1008,2 0 0,0
22.11.2017 08:00:00 10,0 7,7 23 13 43 23 SSW 1007,9 0 0,0
22.11.2017 07:00:00 10,2 7,7 22 12 40 22 SSW 1007,7 0 0,0
22.11.2017 06:00:00 10,2 7,8 23 12 43 23 SSW 1008,0 0 0,0
22.11.2017 05:00:00 10,2 7,8 21 11 46 25 SSW 1008,5 0 0,0
22.11.2017 04:00:00 10,2 7,8 20 11 41 22 SSW 1008,8 0 0,0
22.11.2017 03:00:00 10,3 7,7 18 10 41 22 SSW 1009,2 0 0,0
22.11.2017 02:00:00 10,2 7,7 19 10 37 20 SSW 1009,5 0 0,0
22.11.2017 01:00:00 10,1 7,8 18 10 36 20 SSW 1010,2 0 0,0
22.11.2017 00:00:00 9,9 7,7 17 9 41 22 SSW 1010,3 0 0,0
21.11.2017 23:00:00 9,9 7,6 20 11 39 21 SSW 1010,6 0 0,0
21.11.2017 22:00:00 9,9 7,6 20 11 39 21 SSW 1010,9 0 0,0
21.11.2017 21:00:00 9,7 7,6 19 10 37 20 SSW 1011,4 0 0,0
21.11.2017 20:00:00 9,6 7,6 20 11 41 22 SSW 1011,4 0 0,0
21.11.2017 19:00:00 9,5 7,7 18 10 34 18 SSW 1011,9 0 0,0
21.11.2017 18:00:00 9,4 7,8 16 9 32 17 S 1012,1 0 0,0
21.11.2017 17:00:00 9,8 7,9 16 9 36 19 SSW 1012,3 0 0,0
21.11.2017 16:00:00 10,0 8,1 23 12 42 23 SSW 1012,6 0 0,0
21.11.2017 15:00:00 10,0 8,2 26 14 45 24 SSW 1012,7 0 0,0
21.11.2017 14:00:00 9,9 8,7 24 13 43 23 SSW 1013,3 0 0,0
21.11.2017 13:00:00 9,4 9,1 22 12 41 22 SW 1013,6 0 0,0
21.11.2017 12:00:00 9,4 9,2 19 10 42 23 SSW 1014,0 0 0,0
21.11.2017 11:00:00 9,4 9,2 19 11 45 24 SW 1014,1 0 0,2
21.11.2017 10:00:00 9,4 9,3 19 10 43 23 SW 1013,8 0 0,2
21.11.2017 09:00:00 9,7 9,6 21 12 38 21 SW 1013,3 0 0,2
21.11.2017 08:00:00 10,0 9,9 18 10 38 20 SW 1013,0 0 0,5
21.11.2017 07:00:00 10,0 9,8 18 10 33 18 SW 1012,9 0 0,5
21.11.2017 06:00:00 10,2 10,1 18 10 36 19 SW 1012,9 0 0,4
21.11.2017 05:00:00 10,3 10,2 15 8 28 15 SW 1012,9 0 1,4
21.11.2017 04:00:00 10,3 10,2 13 7 24 13 SW 1013,0 0 1,2
21.11.2017 03:00:00 10,0 9,9 14 7 25 13 SW 1013,5 0 0,3
21.11.2017 02:00:00 9,8 9,6 13 7 29 16 SW 1013,5 0 0,1
21.11.2017 01:00:00 9,8 9,6 14 8 31 17 SW 1013,6 0 0,1
21.11.2017 00:00:00 9,7 9,5 10 6 29 16 SW 1013,6 0 0,0
20.11.2017 23:00:00 9,5 9,3 10 6 31 17 SW 1013,3 0 0,4
20.11.2017 22:00:00 9,2 9,0 17 9 35 19 SW 1013,4 0 0,9
20.11.2017 21:00:00 9,1 8,8 14 8 39 21 SW 1013,5 0 1,0
20.11.2017 20:00:00 9,1 8,8 19 10 49 26 SW 1013,2 0 0,3
20.11.2017 19:00:00 9,1 8,7 20 11 46 25 SW 1013,3 0 0,4
20.11.2017 18:00:00 9,0 8,7 20 11 40 22 SW 1013,4 0 0,1
20.11.2017 17:00:00 8,7 8,4 25 14 51 28 SW 1013,9 0 0,1
20.11.2017 16:00:00 8,2 7,8 21 11 46 25 SW 1014,2 0 0,1
20.11.2017 15:00:00 7,4 7,0 18 10 39 21 SW 1014,9 0 0,2
20.11.2017 14:00:00 6,9 6,4 23 12 39 21 SW 1015,9 0 0,3
20.11.2017 13:00:00 6,2 5,6 22 12 34 18 SW 1017,0 0 0,5
20.11.2017 12:00:00 5,4 4,6 18 10 36 19 S 1017,7 0 0,4
20.11.2017 11:00:00 5,1 3,9 16 8 35 19 SSW 1018,6 0 0,2
20.11.2017 10:00:00 4,1 2,8 12 7 22 12 S 1019,5 0 0,0
20.11.2017 09:00:00 3,7 2,0 10 5 20 11 S 1020,1 0 0,1
20.11.2017 08:00:00 3,5 1,6 10 5 19 10 S 1021,0 0 0,0
20.11.2017 07:00:00 3,3 1,5 11 6 20 11 SSW 1021,1 0 0,0
20.11.2017 06:00:00 3,1 1,4 9 5 19 11 S 1021,2 0 0,0
20.11.2017 05:00:00 2,7 1,4 7 4 14 8 S 1021,6 0 0,0
20.11.2017 04:00:00 2,5 1,4 8 4 14 7 SSW 1022,2 0 0,0
20.11.2017 03:00:00 2,2 1,1 7 4 13 7 SSW 1022,5 0 0,0
20.11.2017 02:00:00 2,4 1,4 5 3 15 8 SW 1023,0 0 0,0
20.11.2017 01:00:00 2,6 1,8 7 4 16 9 SW 1023,6 0 0,0
20.11.2017 00:00:00 1,8 1,1 8 4 13 7 SW 1024,0 0 0,0
19.11.2017 23:00:00 1,6 0,7 6 4 11 6 SW 1024,0 0 0,0
19.11.2017 22:00:00 2,2 1,1 6 4 13 7 SW 1024,0 0 0,0
19.11.2017 21:00:00 2,9 1,5 6 3 16 8 SW 1023,4 0 0,0
19.11.2017 20:00:00 4,0 2,2 10 6 21 11 WSW 1023,2 0 0,0
19.11.2017 19:00:00 4,4 2,2 11 6 18 10 W 1022,7 0 0,0
19.11.2017 18:00:00 5,6 2,8 9 5 24 13 W 1022,3 0 0,0
19.11.2017 17:00:00 7,0 3,0 11 6 25 13 W 1021,8 1 0,0
19.11.2017 16:00:00 8,0 2,8 14 8 31 17 W 1021,5 41 0,0
19.11.2017 15:00:00 8,5 3,3 17 9 32 17 W 1021,1 39 0,0
19.11.2017 14:00:00 8,1 4,2 13 7 30 16 W 1021,1 14 0,0
19.11.2017 13:00:00 7,2 3,6 14 8 24 13 W 1021,2 0 0,0
19.11.2017 12:00:00 7,0 3,0 11 6 23 13 W 1021,2 32 0,0
19.11.2017 11:00:00 5,5 2,4 11 6 21 12 WSW 1021,0 22 0,0
19.11.2017 10:00:00 3,9 1,3 10 5 19 10 WSW 1020,3 25 0,0
19.11.2017 09:00:00 2,5 0,7 11 6 18 10 WSW 1019,8 17 0,0
19.11.2017 08:00:00 2,5 0,8 9 5 16 9 W 1019,4 0 0,0
19.11.2017 07:00:00 2,5 1,0 11 6 16 8 W 1019,0 0 0,0
19.11.2017 06:00:00 2,7 1,2 8 4 14 8 W 1018,7 0 0,0
19.11.2017 05:00:00 3,2 2,0 9 5 16 8 W 1018,2 0 0,0
19.11.2017 04:00:00 3,8 2,8 9 5 18 10 W 1018,0 0 0,0
19.11.2017 03:00:00 4,7 4,2 9 5 16 9 W 1017,7 0 0,0
19.11.2017 02:00:00 5,1 4,7 9 5 16 9 W 1017,5 0 0,0
19.11.2017 01:00:00 6,1 5,7 11 6 19 10 W 1017,6 0 0,0
19.11.2017 00:00:00 6,4 6,0 10 5 18 10 WSW 1017,4 0 0,0
18.11.2017 23:00:00 6,5 6,1 10 6 18 10 WSW 1017,7 0 0,0
18.11.2017 22:00:00 6,7 6,3 10 5 20 11 WSW 1017,9 0 0,0
18.11.2017 21:00:00 7,0 6,5 9 5 19 11 WSW 1018,2 0 0,0
18.11.2017 20:00:00 7,1 6,4 12 6 23 12 SW 1018,4 0 0,8
18.11.2017 19:00:00 7,2 6,1 14 8 31 17 WSW 1019,2 0 0,1
18.11.2017 18:00:00 7,6 5,5 14 8 29 16 WSW 1019,2 0 0,0
18.11.2017 17:00:00 7,8 4,6 12 7 29 16 SW 1019,5 0 0,0

tt = Température de l'air
td = dewpoint
ff = Vitesse du vent
fx = gusts
dd = Direction du vent
ppp = reduced air pressure
sd = Ensoleillement
rr = Quantités de précipitations

stations d'obs. à proximité